createdAt,value
2022-09-18T00:01:37.121Z,101944.81
2022-09-18T00:04:08.119Z,101935.69
2022-09-18T00:06:40.411Z,101932.66
2022-09-18T00:09:10.851Z,101928.13
2022-09-18T00:11:42.424Z,101931.81
2022-09-18T00:14:13.995Z,101935.56
2022-09-18T00:16:43.092Z,101940.41
2022-09-18T00:19:12.151Z,101934.00
2022-09-18T00:21:44.279Z,101938.75
2022-09-18T00:24:12.918Z,101938.13
2022-09-18T00:26:41.563Z,101942.00
2022-09-18T00:29:09.534Z,101928.81
2022-09-18T00:31:38.257Z,101940.00
2022-09-18T00:34:09.011Z,101933.34
2022-09-18T00:36:38.606Z,101939.69
2022-09-18T00:39:08.838Z,101932.72
2022-09-18T00:41:39.022Z,101927.44
2022-09-18T00:44:36.915Z,101930.25
2022-09-18T00:47:15.522Z,101937.78
2022-09-18T00:49:48.214Z,101935.22
2022-09-18T00:52:19.436Z,101933.59
2022-09-18T00:54:52.394Z,101940.81
2022-09-18T00:57:24.249Z,101938.25
2022-09-18T00:59:54.156Z,101935.56
2022-09-18T01:02:22.289Z,101933.00
2022-09-18T01:04:51.587Z,101930.31
2022-09-18T01:07:34.133Z,101935.88
2022-09-18T01:10:19.856Z,101927.94
2022-09-18T01:12:56.041Z,101925.28
2022-09-18T01:15:32.360Z,101920.84
2022-09-18T01:18:11.120Z,101917.31
2022-09-18T01:21:03.651Z,101924.50
2022-09-18T01:24:02.150Z,101925.69
2022-09-18T01:26:44.966Z,101922.72
2022-09-18T01:29:23.719Z,101918.66
2022-09-18T01:31:56.953Z,101926.03
2022-09-18T01:34:30.890Z,101916.59
2022-09-18T01:37:05.723Z,101920.88
2022-09-18T01:39:39.582Z,101921.28
2022-09-18T01:42:09.875Z,101916.38
2022-09-18T01:44:42.466Z,101914.41
2022-09-18T01:47:14.172Z,101920.00
2022-09-18T01:49:47.441Z,101918.19
2022-09-18T01:52:19.396Z,101904.59
2022-09-18T01:54:50.059Z,101903.63
2022-09-18T01:57:23.705Z,101903.63
2022-09-18T01:59:58.487Z,101908.13
2022-09-18T02:02:32.547Z,101900.28
2022-09-18T02:05:03.814Z,101907.16
2022-09-18T02:07:40.902Z,101908.13
2022-09-18T02:10:09.525Z,101904.47
2022-09-18T02:12:42.192Z,101898.56
2022-09-18T02:15:14.894Z,101901.25
2022-09-18T02:17:48.212Z,101903.28
2022-09-18T02:20:20.839Z,101906.28
2022-09-18T02:22:52.884Z,101904.78
2022-09-18T02:25:27.258Z,101900.69
2022-09-18T02:27:57.378Z,101903.69
2022-09-18T02:30:28.015Z,101905.84
2022-09-18T02:32:56.980Z,101903.59
2022-09-18T02:35:31.368Z,101898.84
2022-09-18T02:38:03.866Z,101898.44
2022-09-18T02:40:47.802Z,101898.72
2022-09-18T02:43:29.973Z,101906.22
2022-09-18T02:46:08.934Z,101909.44
2022-09-18T02:48:49.125Z,101903.97
2022-09-18T02:51:28.839Z,101905.50
2022-09-18T02:54:03.067Z,101905.28
2022-09-18T02:56:37.527Z,101901.53
2022-09-18T02:59:11.328Z,101899.41
2022-09-18T03:01:43.795Z,101900.25
2022-09-18T03:04:13.992Z,101907.44
2022-09-18T03:06:42.546Z,101905.72
2022-09-18T03:09:10.480Z,101904.31
2022-09-18T03:11:38.401Z,101903.66
2022-09-18T03:14:06.515Z,101904.53
2022-09-18T03:16:34.819Z,101908.28
2022-09-18T03:19:04.394Z,101910.31
2022-09-18T03:21:32.400Z,101912.22
2022-09-18T03:24:00.459Z,101905.38
2022-09-18T03:26:28.634Z,101905.75
2022-09-18T03:28:56.510Z,101894.41
2022-09-18T03:31:25.571Z,101899.84
2022-09-18T03:33:53.592Z,101896.31
2022-09-18T03:36:22.960Z,101897.09
2022-09-18T03:38:51.079Z,101894.41
2022-09-18T03:41:19.295Z,101897.19
2022-09-18T03:43:47.260Z,101892.66
2022-09-18T03:46:15.508Z,101887.44
2022-09-18T03:48:43.873Z,101888.41
2022-09-18T03:51:11.827Z,101890.97
2022-09-18T03:53:41.200Z,101888.41
2022-09-18T03:56:09.204Z,101886.22
2022-09-18T03:58:37.320Z,101885.91
2022-09-18T04:01:06.998Z,101885.53
2022-09-18T04:03:35.565Z,101879.72
2022-09-18T04:06:03.510Z,101877.63
2022-09-18T04:08:31.500Z,101879.63
2022-09-18T04:11:01.022Z,101882.44
2022-09-18T04:13:29.926Z,101888.72
2022-09-18T04:15:58.031Z,101880.06
2022-09-18T04:18:26.297Z,101880.78
2022-09-18T04:20:54.277Z,101881.94
2022-09-18T04:23:22.214Z,101877.66
2022-09-18T04:25:50.284Z,101887.69
2022-09-18T04:28:20.212Z,101887.88
2022-09-18T04:30:49.066Z,101886.19
2022-09-18T04:33:17.059Z,101881.06
2022-09-18T04:35:45.023Z,101887.44
2022-09-18T04:38:13.168Z,101888.50
2022-09-18T04:40:41.109Z,101893.84
2022-09-18T04:43:10.450Z,101902.06
2022-09-18T04:45:39.848Z,101902.25
2022-09-18T04:48:07.962Z,101909.63
2022-09-18T04:50:36.115Z,101901.03
2022-09-18T04:53:04.135Z,101904.00
2022-09-18T04:55:32.136Z,101902.94
2022-09-18T04:57:59.985Z,101904.00
2022-09-18T05:00:28.777Z,101900.94
2022-09-18T05:02:58.337Z,101907.44
2022-09-18T05:05:26.371Z,101896.06
2022-09-18T05:07:54.354Z,101906.13
2022-09-18T05:10:22.390Z,101907.03
2022-09-18T05:12:50.385Z,101914.41
2022-09-18T05:15:18.976Z,101904.97
2022-09-18T05:17:46.892Z,101908.56
2022-09-18T05:20:16.757Z,101905.72
2022-09-18T05:22:47.141Z,101906.47
2022-09-18T05:25:15.356Z,101911.06
2022-09-18T05:27:43.426Z,101912.31
2022-09-18T05:30:12.160Z,101913.34
2022-09-18T05:32:40.144Z,101911.63
2022-09-18T05:35:08.432Z,101917.81
2022-09-18T05:37:37.705Z,101909.72
2022-09-18T05:40:06.470Z,101913.72
2022-09-18T05:42:34.529Z,101919.84
2022-09-18T05:45:02.471Z,101917.94
2022-09-18T05:47:32.482Z,101916.03
2022-09-18T05:50:00.646Z,101913.06
2022-09-18T05:52:28.707Z,101911.81
2022-09-18T05:54:58.078Z,101921.25
2022-09-18T05:57:26.230Z,101916.59
2022-09-18T05:59:54.136Z,101920.34
2022-09-18T06:02:22.279Z,101925.75
2022-09-18T06:04:50.367Z,101918.03
2022-09-18T06:07:18.680Z,101928.44
2022-09-18T06:09:46.606Z,101926.53
2022-09-18T06:12:15.923Z,101921.84
2022-09-18T06:14:44.020Z,101930.25
2022-09-18T06:17:12.003Z,101924.44
2022-09-18T06:19:39.946Z,101930.69
2022-09-18T06:22:07.880Z,101928.00
2022-09-18T06:24:35.753Z,101930.19
2022-09-18T06:27:03.874Z,101941.00
2022-09-18T06:29:33.255Z,101943.03
2022-09-18T06:32:01.310Z,101937.19
2022-09-18T06:34:29.495Z,101941.09
2022-09-18T06:36:57.622Z,101941.22
2022-09-18T06:39:25.587Z,101941.38
2022-09-18T06:41:53.513Z,101939.88
2022-09-18T06:44:21.478Z,101942.06
2022-09-18T06:46:51.302Z,101939.69
2022-09-18T06:49:19.546Z,101942.91
2022-09-18T06:51:48.675Z,101947.13
2022-09-18T06:54:17.081Z,101947.66
2022-09-18T06:56:46.883Z,101951.72
2022-09-18T06:59:15.017Z,101948.84
2022-09-18T07:01:43.207Z,101961.94
2022-09-18T07:04:12.905Z,101961.63
2022-09-18T07:06:40.910Z,101966.56
2022-09-18T07:09:09.780Z,101954.66
2022-09-18T07:11:37.702Z,101962.06
2022-09-18T07:14:06.794Z,101959.75
2022-09-18T07:16:34.916Z,101968.19
2022-09-18T07:19:03.218Z,101970.44
2022-09-18T07:21:32.693Z,101961.41
2022-09-18T07:24:00.843Z,101958.41
2022-09-18T07:26:28.921Z,101964.41
2022-09-18T07:28:56.833Z,101969.13
2022-09-18T07:31:24.786Z,101969.22
2022-09-18T07:33:53.301Z,101966.09
2022-09-18T07:36:22.000Z,101974.69
2022-09-18T07:38:52.873Z,101973.72
2022-09-18T07:41:21.607Z,101970.06
2022-09-18T07:43:50.868Z,101969.06
2022-09-18T07:46:18.848Z,101965.00
2022-09-18T07:48:46.979Z,101965.25
2022-09-18T07:51:15.038Z,101971.66
2022-09-18T07:53:43.116Z,101973.94
2022-09-18T07:56:13.737Z,101968.09
2022-09-18T07:58:41.935Z,101978.16
2022-09-18T08:01:09.901Z,101974.06
2022-09-18T08:03:41.355Z,101974.00
2022-09-18T08:06:09.877Z,101966.47
2022-09-18T08:08:38.020Z,101979.25
2022-09-18T08:11:06.180Z,101981.78
2022-09-18T08:13:36.004Z,101979.09
2022-09-18T08:16:05.015Z,101976.59
2022-09-18T08:18:33.103Z,101977.03
2022-09-18T08:21:01.263Z,101980.22
2022-09-18T08:23:29.524Z,101980.19
2022-09-18T08:25:57.886Z,101984.13
2022-09-18T08:28:25.924Z,101985.81
2022-09-18T08:30:55.906Z,101975.72
2022-09-18T08:33:24.595Z,101987.22
2022-09-18T08:35:52.594Z,101984.25
2022-09-18T08:38:20.700Z,101986.16
2022-09-18T08:41:08.200Z,101986.38
2022-09-18T08:43:52.421Z,101988.94
2022-09-18T08:46:26.915Z,101983.44
2022-09-18T08:49:02.477Z,101990.66
2022-09-18T08:51:34.671Z,101996.84
2022-09-18T08:54:19.914Z,101997.97
2022-09-18T08:56:48.952Z,101988.31
2022-09-18T08:59:31.084Z,101994.06
2022-09-18T09:02:11.923Z,102001.00
2022-09-18T09:04:40.258Z,101993.25
2022-09-18T09:07:29.408Z,101998.41
2022-09-18T09:10:13.238Z,102002.56
2022-09-18T09:12:48.475Z,101997.56
2022-09-18T09:15:31.007Z,102010.03
2022-09-18T09:18:12.516Z,102001.50
2022-09-18T09:20:50.678Z,102010.84
2022-09-18T09:23:24.029Z,102013.00
2022-09-18T09:26:01.688Z,102011.47
2022-09-18T09:28:35.166Z,102005.28
2022-09-18T09:31:06.045Z,102005.56
2022-09-18T09:33:40.493Z,101999.56
2022-09-18T09:36:11.482Z,102002.56
2022-09-18T09:38:47.490Z,102001.31
2022-09-18T09:41:24.290Z,102000.78
2022-09-18T09:44:01.794Z,101998.53
2022-09-18T09:46:45.452Z,101996.25
2022-09-18T09:49:20.022Z,101990.28
2022-09-18T09:51:54.698Z,101995.44
2022-09-18T09:54:22.960Z,101988.59
2022-09-18T09:56:58.124Z,101989.28
2022-09-18T09:59:34.980Z,101982.59
2022-09-18T10:02:24.160Z,101977.66
2022-09-18T10:04:58.305Z,101980.53
2022-09-18T10:07:33.408Z,101986.91
2022-09-18T10:10:07.729Z,101987.44
2022-09-18T10:12:47.552Z,101975.50
2022-09-18T10:15:20.697Z,101976.06
2022-09-18T10:17:52.392Z,101973.63
2022-09-18T10:20:27.577Z,101977.16
2022-09-18T10:22:59.637Z,101980.88
2022-09-18T10:25:32.311Z,101979.59
2022-09-18T10:28:00.214Z,101982.31
2022-09-18T10:30:28.282Z,101979.91
2022-09-18T10:32:56.418Z,101967.84
2022-09-18T10:35:57.263Z,101977.25
2022-09-18T10:38:37.843Z,101979.78
2022-09-18T10:41:28.277Z,101982.22
2022-09-18T10:44:04.790Z,101973.25
2022-09-18T10:46:36.585Z,101983.50
2022-09-18T10:49:19.923Z,101987.91
2022-09-18T10:51:49.505Z,101966.38
2022-09-18T10:54:19.644Z,101972.06
2022-09-18T10:56:47.805Z,101972.38
2022-09-18T10:59:34.134Z,101975.91
2022-09-18T11:02:08.454Z,101983.19
2022-09-18T11:04:36.829Z,101969.75
2022-09-18T11:07:08.025Z,101973.59
2022-09-18T11:09:39.775Z,101968.91
2022-09-18T11:12:16.463Z,101953.06
2022-09-18T11:14:49.431Z,101967.88
2022-09-18T11:17:31.369Z,101955.47
2022-09-18T11:20:01.613Z,101952.56
2022-09-18T11:22:38.264Z,101944.28
2022-09-18T11:25:21.549Z,101953.16
2022-09-18T11:27:51.540Z,101955.47
2022-09-18T11:30:24.818Z,101952.31
2022-09-18T11:32:58.523Z,101944.47
2022-09-18T11:35:29.237Z,101957.44
2022-09-18T11:38:06.314Z,101958.81
2022-09-18T11:40:45.123Z,101958.09
2022-09-18T11:43:17.596Z,101955.22
2022-09-18T11:45:53.062Z,101945.69
2022-09-18T11:48:31.292Z,101956.22
2022-09-18T11:51:02.780Z,101959.34
2022-09-18T11:53:39.549Z,101954.66
2022-09-18T11:56:13.885Z,101952.88
2022-09-18T11:58:46.030Z,101967.53
2022-09-18T12:01:24.824Z,101960.00
2022-09-18T12:03:59.052Z,101963.44
2022-09-18T12:06:36.325Z,101967.16
2022-09-18T12:09:14.712Z,101968.84
2022-09-18T12:11:50.210Z,101969.47
2022-09-18T12:14:22.992Z,101954.25
2022-09-18T12:17:00.255Z,101961.34
2022-09-18T12:19:38.083Z,101962.03
2022-09-18T12:22:12.643Z,101952.88
2022-09-18T12:24:42.230Z,101967.16
2022-09-18T12:27:27.679Z,101955.88
2022-09-18T12:30:07.875Z,101955.94
2022-09-18T12:32:52.243Z,101957.53
2022-09-18T12:35:33.510Z,101954.47
2022-09-18T12:38:13.816Z,101948.13
2022-09-18T12:41:01.044Z,101950.72
2022-09-18T12:43:45.048Z,101944.13
2022-09-18T12:46:27.659Z,101951.81
2022-09-18T12:49:11.738Z,101960.09
2022-09-18T12:51:44.698Z,101959.94
2022-09-18T12:54:32.220Z,101957.69
2022-09-18T12:57:21.303Z,101962.81
2022-09-18T12:59:57.124Z,101954.78
2022-09-18T13:02:33.344Z,101964.72
2022-09-18T13:05:05.692Z,101960.56
2022-09-18T13:07:37.993Z,101960.88
2022-09-18T13:10:17.321Z,101960.56
2022-09-18T13:12:54.163Z,101959.38
2022-09-18T13:15:27.330Z,101967.22
2022-09-18T13:18:05.164Z,101958.63
2022-09-18T13:20:39.791Z,101957.34
2022-09-18T13:23:17.401Z,101960.25
2022-09-18T13:25:49.304Z,101947.25
2022-09-18T13:28:21.399Z,101956.56
2022-09-18T13:31:12.435Z,101944.78
2022-09-18T13:33:41.235Z,101951.34
2022-09-18T13:36:09.493Z,101961.94
2022-09-18T13:38:48.808Z,101959.63
2022-09-18T13:41:17.299Z,101957.47
2022-09-18T13:43:54.067Z,101952.22
2022-09-18T13:46:54.861Z,101957.28
2022-09-18T13:49:30.914Z,101935.34
2022-09-18T13:52:43.122Z,101933.66
2022-09-18T13:55:38.815Z,101932.91
2022-09-18T13:58:39.233Z,101938.66
2022-09-18T14:01:12.877Z,101938.56
2022-09-18T14:03:43.135Z,101930.16
2022-09-18T14:06:46.326Z,101940.91
2022-09-18T14:09:49.517Z,101930.78
2022-09-18T14:12:19.625Z,101924.72
2022-09-18T14:15:09.324Z,101928.81
2022-09-18T14:17:42.141Z,101937.13
2022-09-18T14:20:21.895Z,101940.59
2022-09-18T14:22:51.567Z,101923.28
2022-09-18T14:25:49.915Z,101931.34
2022-09-18T14:28:21.491Z,101921.50
2022-09-18T14:31:13.027Z,101927.69
2022-09-18T14:33:47.358Z,101925.56
2022-09-18T14:36:15.493Z,101918.47
2022-09-18T14:38:44.891Z,101929.69
2022-09-18T14:41:20.681Z,101922.00
2022-09-18T14:43:52.027Z,101914.91
2022-09-18T14:46:23.023Z,101922.00
2022-09-18T14:48:51.567Z,101920.00
2022-09-18T14:51:23.226Z,101915.13
2022-09-18T14:53:54.082Z,101913.88
2022-09-18T14:56:30.504Z,101913.25
2022-09-18T14:59:01.855Z,101912.47
2022-09-18T15:01:32.963Z,101924.06
2022-09-18T15:04:03.315Z,101920.84
2022-09-18T15:06:36.323Z,101919.75
2022-09-18T15:09:07.127Z,101915.53
2022-09-18T15:11:58.444Z,101911.56
2022-09-18T15:14:31.140Z,101910.44
2022-09-18T15:17:00.434Z,101899.13
2022-09-18T15:19:30.845Z,101902.22
2022-09-18T15:22:01.013Z,101901.59
2022-09-18T15:24:30.811Z,101903.91
2022-09-18T15:27:02.946Z,101894.75
2022-09-18T15:29:40.852Z,101897.78
2022-09-18T15:32:09.375Z,101899.56
2022-09-18T15:34:46.383Z,101891.97
2022-09-18T15:37:21.163Z,101893.63
2022-09-18T15:39:53.003Z,101905.97
2022-09-18T15:42:29.858Z,101897.00
2022-09-18T15:45:30.624Z,101903.53
2022-09-18T15:48:00.746Z,101901.94
2022-09-18T15:50:40.084Z,101896.63
2022-09-18T15:53:29.565Z,101897.38
2022-09-18T15:56:06.534Z,101897.94
2022-09-18T15:58:59.283Z,101897.03
2022-09-18T16:01:30.936Z,101897.69
2022-09-18T16:04:18.219Z,101902.09
2022-09-18T16:06:55.547Z,101895.09
2022-09-18T16:09:40.763Z,101895.91
2022-09-18T16:12:35.327Z,101896.16
2022-09-18T16:15:20.198Z,101897.69
2022-09-18T16:18:21.829Z,101896.38
2022-09-18T16:21:04.537Z,101892.78
2022-09-18T16:23:34.969Z,101897.34
2022-09-18T16:26:08.922Z,101906.16
2022-09-18T16:28:41.938Z,101901.00
2022-09-18T16:31:13.257Z,101906.69
2022-09-18T16:33:51.221Z,101907.34
2022-09-18T16:36:27.595Z,101898.88
2022-09-18T16:38:55.876Z,101901.84
2022-09-18T16:41:25.268Z,101904.06
2022-09-18T16:43:54.470Z,101899.66
2022-09-18T16:46:29.600Z,101894.56
2022-09-18T16:48:58.312Z,101902.41
2022-09-18T16:51:26.333Z,101891.53
2022-09-18T16:53:54.413Z,101899.16
2022-09-18T16:56:27.545Z,101900.06
2022-09-18T16:58:58.068Z,101898.84
2022-09-18T17:01:39.604Z,101895.09
2022-09-18T17:04:18.449Z,101896.06
2022-09-18T17:06:46.649Z,101894.53
2022-09-18T17:09:15.222Z,101906.94
2022-09-18T17:11:44.835Z,101897.91
2022-09-18T17:14:13.460Z,101907.28
2022-09-18T17:16:45.023Z,101905.34
2022-09-18T17:19:14.219Z,101894.97
2022-09-18T17:21:44.093Z,101907.19
2022-09-18T17:24:13.469Z,101904.50
2022-09-18T17:26:42.782Z,101910.19
2022-09-18T17:32:00.151Z,101909.66
2022-09-18T17:34:34.015Z,101912.66
2022-09-18T17:37:02.103Z,101911.53
2022-09-18T17:39:31.428Z,101905.97
2022-09-18T17:42:01.206Z,101913.66
2022-09-18T17:44:29.596Z,101909.25
2022-09-18T17:47:00.291Z,101905.00
2022-09-18T17:49:31.294Z,101908.53
2022-09-18T17:51:59.948Z,101911.50
2022-09-18T17:54:29.405Z,101915.38
2022-09-18T17:56:57.612Z,101917.31
2022-09-18T17:59:25.702Z,101917.22
2022-09-18T18:01:53.776Z,101906.06
2022-09-18T18:04:23.924Z,101908.50
2022-09-18T18:06:52.147Z,101911.28
2022-09-18T18:09:20.297Z,101906.72
2022-09-18T18:11:49.055Z,101911.00
2022-09-18T18:14:17.560Z,101910.69
2022-09-18T18:16:49.784Z,101907.03
2022-09-18T18:19:20.283Z,101912.59
2022-09-18T18:21:49.821Z,101912.53
2022-09-18T18:24:19.002Z,101915.88
2022-09-18T18:26:48.270Z,101911.75
2022-09-18T18:29:21.621Z,101913.03
2022-09-18T18:31:50.724Z,101916.69
2022-09-18T18:34:21.179Z,101907.16
2022-09-18T18:36:52.658Z,101913.50
2022-09-18T18:39:21.959Z,101903.16
2022-09-18T18:41:50.671Z,101908.47
2022-09-18T18:44:19.141Z,101914.88
2022-09-18T18:46:47.296Z,101920.84
2022-09-18T18:49:15.552Z,101924.97
2022-09-18T18:51:47.607Z,101925.53
2022-09-18T18:54:19.503Z,101923.34
2022-09-18T18:56:47.887Z,101937.22
2022-09-18T18:59:19.781Z,101933.53
2022-09-18T19:01:48.641Z,101931.91
2022-09-18T19:04:19.090Z,101937.13
2022-09-18T19:06:48.937Z,101948.72
2022-09-18T19:09:20.913Z,101945.53
2022-09-18T19:11:52.413Z,101949.03
2022-09-18T19:14:21.914Z,101958.75
2022-09-18T19:16:50.904Z,101962.38
2022-09-18T19:19:20.875Z,101967.72
2022-09-18T19:21:49.537Z,101963.94
2022-09-18T19:24:19.717Z,101969.00
2022-09-18T19:26:48.804Z,101957.88
2022-09-18T19:29:18.801Z,101962.09
2022-09-18T19:31:49.403Z,101965.13
2022-09-18T19:34:19.540Z,101970.19
2022-09-18T19:36:50.324Z,101969.81
2022-09-18T19:39:24.087Z,101974.88
2022-09-18T19:41:56.478Z,101970.84
2022-09-18T19:44:31.434Z,101970.47
2022-09-18T19:47:01.595Z,101981.16
2022-09-18T19:49:33.058Z,101979.22
2022-09-18T19:52:02.120Z,101971.16
2022-09-18T19:54:31.838Z,101984.78
2022-09-18T19:57:00.237Z,101984.38
2022-09-18T19:59:28.175Z,101982.78
2022-09-18T20:01:56.548Z,101982.63
2022-09-18T20:04:24.568Z,101983.34
2022-09-18T20:06:52.535Z,101983.97
2022-09-18T20:09:20.710Z,101981.16
2022-09-18T20:11:50.298Z,101987.97
2022-09-18T20:14:18.422Z,101999.81
2022-09-18T20:16:46.363Z,101998.47
2022-09-18T20:19:14.537Z,101986.22
2022-09-18T20:21:42.609Z,101988.19
2022-09-18T20:24:10.697Z,101981.06
2022-09-18T20:26:38.709Z,101989.41
2022-09-18T20:29:08.163Z,101991.34
2022-09-18T20:31:37.204Z,101995.72
2022-09-18T20:34:06.029Z,101990.13
2022-09-18T20:36:34.211Z,101991.84
2022-09-18T20:39:02.546Z,101994.44
2022-09-18T20:41:31.088Z,101991.84
2022-09-18T20:44:01.242Z,101996.00
2022-09-18T20:46:35.133Z,102004.84
2022-09-18T20:49:06.505Z,101989.91
2022-09-18T20:51:36.055Z,102002.59
2022-09-18T20:54:07.017Z,101999.66
2022-09-18T20:56:38.135Z,101991.94
2022-09-18T20:59:07.666Z,101994.72
2022-09-18T21:01:38.277Z,101994.97
2022-09-18T21:04:07.549Z,101995.94
2022-09-18T21:06:36.026Z,101996.91
2022-09-18T21:09:07.470Z,102001.69
2022-09-18T21:11:42.340Z,102004.38
2022-09-18T21:14:13.433Z,102003.84
2022-09-18T21:16:44.018Z,102002.25
2022-09-18T21:19:13.366Z,102000.75
2022-09-18T21:21:42.039Z,102003.69
2022-09-18T21:24:10.344Z,102009.06
2022-09-18T21:26:40.384Z,102009.78
2022-09-18T21:29:12.773Z,102009.91
2022-09-18T21:31:43.460Z,102011.84
2022-09-18T21:34:13.812Z,102010.00
2022-09-18T21:36:43.411Z,102007.31
2022-09-18T21:39:12.879Z,102004.63
2022-09-18T21:41:45.962Z,102005.63
2022-09-18T21:44:15.701Z,102004.13
2022-09-18T21:46:46.355Z,102008.56
2022-09-18T21:49:16.302Z,102004.88
2022-09-18T21:51:44.839Z,102007.78
2022-09-18T21:54:15.580Z,102008.75
2022-09-18T21:56:44.182Z,102014.34
2022-09-18T21:59:12.861Z,102013.63
2022-09-18T22:01:42.892Z,102013.81
2022-09-18T22:04:13.433Z,102004.25
2022-09-18T22:06:44.131Z,102008.91
2022-09-18T22:09:14.075Z,102013.63
2022-09-18T22:11:42.935Z,102005.91
2022-09-18T22:14:14.033Z,102008.72
2022-09-18T22:16:43.112Z,102006.38
2022-09-18T22:19:13.003Z,102013.78
2022-09-18T22:21:44.157Z,102001.66
2022-09-18T22:24:15.223Z,102013.84
2022-09-18T22:26:45.429Z,102023.09
2022-09-18T22:29:16.961Z,102019.09
2022-09-18T22:31:47.230Z,102019.56
2022-09-18T22:34:20.275Z,102012.06
2022-09-18T22:36:49.139Z,102011.41
2022-09-18T22:39:18.853Z,102015.50
2022-09-18T22:41:47.131Z,102012.41
2022-09-18T22:44:16.329Z,102011.75
2022-09-18T22:46:46.805Z,102009.31
2022-09-18T22:49:18.404Z,102014.88
2022-09-18T22:51:47.487Z,102015.97
2022-09-18T22:54:16.925Z,102022.38
2022-09-18T22:56:52.298Z,102018.31
2022-09-18T22:59:22.562Z,102013.06
2022-09-18T23:01:52.804Z,102013.16
2022-09-18T23:04:24.061Z,102014.00
2022-09-18T23:06:52.645Z,102015.94
2022-09-18T23:09:21.528Z,102010.59
2022-09-18T23:11:52.056Z,102021.31
2022-09-18T23:14:22.286Z,102014.78
2022-09-18T23:16:51.489Z,102017.22
2022-09-18T23:19:22.784Z,102018.72
2022-09-18T23:21:51.961Z,102023.13
2022-09-18T23:24:20.152Z,102018.72
2022-09-18T23:26:50.186Z,102028.50
2022-09-18T23:29:21.003Z,102024.31
2022-09-18T23:31:53.027Z,102027.94
2022-09-18T23:34:24.859Z,102019.59
2022-09-18T23:36:54.691Z,102025.16
2022-09-18T23:39:24.572Z,102032.47
2022-09-18T23:41:53.360Z,102033.22
2022-09-18T23:44:23.276Z,102030.53
2022-09-18T23:46:51.688Z,102032.25
2022-09-18T23:49:23.176Z,102030.53
2022-09-18T23:51:54.474Z,102023.47
2022-09-18T23:54:24.980Z,102023.47
2022-09-18T23:56:53.703Z,102031.38
2022-09-18T23:59:23.516Z,102029.25
